Time,TemperatureF,DewpointF,PressureIn,WindDirection,WindDirectionDegrees,WindSpeedMPH,WindSpeedGustMPH,Humidity,HourlyPrecipIn,Conditions,Clouds,dailyrainin,SoftwareType,DateUTC
2013-01-10 00:03:00,43.6,40.2,29.94,West,270,0.0,1.1,88,0.00,,,0.00,WUHU216HW,2013-01-10 08:03:00,
2013-01-10 00:08:00,43.6,40.2,29.94,West,270,0.4,0.7,88,0.00,,,0.00,WUHU216HW,2013-01-10 08:08:00,
2013-01-10 00:13:00,43.2,39.6,29.94,West,270,0.0,0.7,87,0.00,,,0.00,WUHU216HW,2013-01-10 08:13:00,
2013-01-10 00:18:00,43.0,39.4,29.94,West,270,0.0,0.4,87,0.00,,,0.00,WUHU216HW,2013-01-10 08:18:00,
2013-01-10 00:23:00,42.8,39.3,29.94,West,270,0.0,0.0,87,0.00,,,0.00,WUHU216HW,2013-01-10 08:23:00,
2013-01-10 00:28:00,42.8,39.3,29.95,West,270,0.0,0.0,87,0.00,,,0.00,WUHU216HW,2013-01-10 08:28:00,
2013-01-10 00:33:00,42.7,39.1,29.95,West,270,0.0,0.0,87,0.00,,,0.00,WUHU216HW,2013-01-10 08:33:00,
2013-01-10 00:38:00,42.7,39.1,29.95,West,270,0.0,0.0,87,0.00,,,0.00,WUHU216HW,2013-01-10 08:38:00,
2013-01-10 00:43:00,42.3,39.0,29.95,West,270,0.0,0.0,88,0.00,,,0.00,WUHU216HW,2013-01-10 08:43:00,
2013-01-10 00:48:00,42.1,38.8,29.95,West,270,0.0,0.0,88,0.00,,,0.00,WUHU216HW,2013-01-10 08:48:00,
2013-01-10 00:53:00,42.1,38.8,29.95,West,270,0.0,0.2,88,0.00,,,0.00,WUHU216HW,2013-01-10 08:53:00,
2013-01-10 00:58:00,42.1,38.8,29.95,West,270,0.0,0.2,88,0.00,,,0.00,WUHU216HW,2013-01-10 08:58:00,
2013-01-10 01:03:00,42.1,38.8,29.95,West,270,0.0,0.0,88,0.00,,,0.00,WUHU216HW,2013-01-10 09:03:00,
2013-01-10 01:08:00,41.9,38.6,29.95,West,270,0.0,0.0,88,0.00,,,0.00,WUHU216HW,2013-01-10 09:08:00,
2013-01-10 01:13:00,41.9,38.6,29.95,West,270,0.0,0.0,88,0.00,,,0.00,WUHU216HW,2013-01-10 09:13:00,
2013-01-10 01:18:00,41.9,38.6,29.95,West,270,0.2,0.2,88,0.00,,,0.00,WUHU216HW,2013-01-10 09:18:00,
2013-01-10 01:23:00,41.8,38.8,29.95,West,270,0.0,0.4,89,0.00,,,0.00,WUHU216HW,2013-01-10 09:23:00,
2013-01-10 01:28:00,41.8,38.8,29.95,West,270,0.0,0.4,89,0.00,,,0.00,WUHU216HW,2013-01-10 09:28:00,
2013-01-10 01:33:00,41.8,38.8,29.95,West,270,0.0,0.0,89,0.00,,,0.00,WUHU216HW,2013-01-10 09:33:00,
2013-01-10 01:38:00,41.8,38.8,29.96,West,270,0.0,0.0,89,0.00,,,0.00,WUHU216HW,2013-01-10 09:38:00,
2013-01-10 01:43:00,41.9,39.0,29.96,West,270,0.0,0.0,89,0.00,,,0.00,WUHU216HW,2013-01-10 09:43:00,
2013-01-10 01:48:00,41.9,39.0,29.96,West,270,0.0,0.0,89,0.00,,,0.00,WUHU216HW,2013-01-10 09:48:00,
2013-01-10 01:53:00,41.9,39.0,29.96,West,270,0.0,0.0,89,0.00,,,0.00,WUHU216HW,2013-01-10 09:53:00,
2013-01-10 01:58:00,41.8,38.8,29.96,West,270,0.0,0.2,89,0.00,,,0.00,WUHU216HW,2013-01-10 09:58:00,
2013-01-10 02:03:00,41.8,38.8,29.96,West,270,0.0,0.2,89,0.00,,,0.00,WUHU216HW,2013-01-10 10:03:00,
2013-01-10 02:08:00,41.4,38.1,29.97,West,270,0.0,0.0,88,0.00,,,0.00,WUHU216HW,2013-01-10 10:08:00,
2013-01-10 02:13:00,40.9,37.5,29.96,West,270,0.0,0.0,88,0.00,,,0.00,WUHU216HW,2013-01-10 10:13:00,
2013-01-10 02:18:00,40.7,37.4,29.96,West,270,0.0,0.0,88,0.00,,,0.00,WUHU216HW,2013-01-10 10:18:00,
2013-01-10 02:23:00,40.5,37.5,29.97,West,270,0.0,0.0,89,0.00,,,0.00,WUHU216HW,2013-01-10 10:23:00,
2013-01-10 02:28:00,40.5,37.5,29.97,West,270,0.0,0.2,89,0.00,,,0.00,WUHU216HW,2013-01-10 10:28:00,
2013-01-10 02:33:00,40.3,37.4,29.97,West,270,0.0,0.2,89,0.00,,,0.00,WUHU216HW,2013-01-10 10:33:00,
2013-01-10 02:38:00,40.3,37.4,29.97,West,270,0.0,0.2,89,0.00,,,0.00,WUHU216HW,2013-01-10 10:38:00,
2013-01-10 02:43:00,40.5,37.5,29.97,West,270,0.0,0.0,89,0.00,,,0.00,WUHU216HW,2013-01-10 10:43:00,
2013-01-10 02:48:00,40.3,37.4,29.97,West,270,0.0,0.0,89,0.00,,,0.00,WUHU216HW,2013-01-10 10:48:00,
2013-01-10 02:53:00,40.3,37.4,29.97,West,270,0.0,0.0,89,0.00,,,0.00,WUHU216HW,2013-01-10 10:53:00,
2013-01-10 02:58:00,40.3,37.4,29.97,West,270,0.0,0.0,89,0.00,,,0.00,WUHU216HW,2013-01-10 10:58:00,
2013-01-10 03:03:00,40.1,37.2,29.97,West,270,0.0,0.0,89,0.00,,,0.00,WUHU216HW,2013-01-10 11:03:00,
2013-01-10 03:08:00,40.1,37.2,29.97,West,270,0.0,0.0,89,0.00,,,0.00,WUHU216HW,2013-01-10 11:08:00,
2013-01-10 03:13:00,40.0,37.0,29.97,West,270,0.0,0.2,89,0.00,,,0.00,WUHU216HW,2013-01-10 11:13:00,
2013-01-10 03:18:00,40.0,37.0,29.97,West,270,0.0,0.2,89,0.00,,,0.00,WUHU216HW,2013-01-10 11:18:00,
2013-01-10 03:23:00,40.0,37.0,29.97,West,270,0.0,0.0,89,0.00,,,0.00,WUHU216HW,2013-01-10 11:23:00,
2013-01-10 03:28:00,39.8,36.8,29.97,West,270,0.0,0.0,89,0.00,,,0.00,WUHU216HW,2013-01-10 11:28:00,
2013-01-10 03:33:00,39.6,36.6,29.97,West,270,0.0,0.0,89,0.00,,,0.00,WUHU216HW,2013-01-10 11:33:00,
2013-01-10 03:38:00,39.6,36.6,29.97,West,270,0.0,0.0,89,0.00,,,0.00,WUHU216HW,2013-01-10 11:38:00,
2013-01-10 03:43:00,39.2,36.3,29.96,West,270,0.0,0.0,89,0.00,,,0.00,WUHU216HW,2013-01-10 11:43:00,
2013-01-10 03:48:00,39.2,36.3,29.96,West,270,0.0,0.0,89,0.00,,,0.00,WUHU216HW,2013-01-10 11:48:00,
2013-01-10 03:53:00,39.2,36.3,29.96,WNW,293,0.0,0.0,89,0.00,,,0.00,WUHU216HW,2013-01-10 11:53:00,
2013-01-10 03:58:00,39.2,36.3,29.96,WNW,293,0.0,0.0,89,0.00,,,0.00,WUHU216HW,2013-01-10 11:58:00,
2013-01-10 04:03:00,39.2,36.3,29.96,WNW,293,0.0,0.0,89,0.00,,,0.00,WUHU216HW,2013-01-10 12:03:00,
2013-01-10 04:08:00,39.2,36.3,29.96,WNW,293,0.0,0.0,89,0.00,,,0.00,WUHU216HW,2013-01-10 12:08:00,
2013-01-10 04:13:00,39.2,36.3,29.96,WNW,293,0.0,0.0,89,0.00,,,0.00,WUHU216HW,2013-01-10 12:13:00,
2013-01-10 04:18:00,39.1,36.1,29.96,WNW,293,0.0,0.0,89,0.00,,,0.00,WUHU216HW,2013-01-10 12:18:00,
2013-01-10 04:23:00,39.1,36.1,29.96,WNW,293,0.0,0.0,89,0.00,,,0.00,WUHU216HW,2013-01-10 12:23:00,
2013-01-10 04:28:00,38.9,35.9,29.96,WNW,293,0.0,0.0,89,0.00,,,0.00,WUHU216HW,2013-01-10 12:28:00,
2013-01-10 04:33:00,38.7,35.7,29.96,WNW,293,0.0,0.0,89,0.00,,,0.00,WUHU216HW,2013-01-10 12:33:00,
2013-01-10 04:38:00,38.5,35.6,29.96,WNW,293,0.0,0.0,89,0.00,,,0.00,WUHU216HW,2013-01-10 12:38:00,
2013-01-10 04:43:00,38.5,35.6,29.96,WNW,293,0.0,0.0,89,0.00,,,0.00,WUHU216HW,2013-01-10 12:43:00,
2013-01-10 04:48:00,38.3,35.4,29.96,WNW,293,0.0,0.0,89,0.00,,,0.00,WUHU216HW,2013-01-10 12:48:00,
2013-01-10 04:53:00,38.2,35.2,29.96,WNW,293,0.0,0.0,89,0.00,,,0.00,WUHU216HW,2013-01-10 12:53:00,
2013-01-10 04:58:00,37.8,34.6,29.96,WNW,293,0.0,0.0,88,0.00,,,0.00,WUHU216HW,2013-01-10 12:58:00,
2013-01-10 05:03:00,37.4,34.2,29.96,WNW,293,0.0,0.0,88,0.00,,,0.00,WUHU216HW,2013-01-10 13:03:00,
2013-01-10 05:08:00,37.3,34.0,29.96,WNW,293,0.0,0.0,88,0.00,,,0.00,WUHU216HW,2013-01-10 13:08:00,
2013-01-10 05:13:00,37.1,33.9,29.96,WNW,293,0.0,0.0,88,0.00,,,0.00,WUHU216HW,2013-01-10 13:13:00,
2013-01-10 05:18:00,37.3,34.0,29.97,WNW,293,0.0,0.0,88,0.00,,,0.00,WUHU216HW,2013-01-10 13:18:00,
2013-01-10 05:23:00,37.1,33.9,29.97,WNW,293,0.0,0.0,88,0.00,,,0.00,WUHU216HW,2013-01-10 13:23:00,
2013-01-10 05:28:00,37.1,33.9,29.97,WNW,293,0.0,0.0,88,0.00,,,0.00,WUHU216HW,2013-01-10 13:28:00,
2013-01-10 05:33:00,37.1,33.9,29.97,WNW,293,0.0,0.0,88,0.00,,,0.00,WUHU216HW,2013-01-10 13:33:00,
2013-01-10 05:38:00,37.1,34.1,29.97,WNW,293,0.0,0.0,89,0.00,,,0.00,WUHU216HW,2013-01-10 13:38:00,
2013-01-10 05:43:00,37.1,34.1,29.97,WNW,293,0.0,0.0,89,0.00,,,0.00,WUHU216HW,2013-01-10 13:43:00,
2013-01-10 05:48:00,37.1,34.1,29.97,WNW,293,0.0,0.2,89,0.00,,,0.00,WUHU216HW,2013-01-10 13:48:00,
2013-01-10 05:53:00,37.1,34.1,29.97,WNW,293,0.0,0.2,89,0.00,,,0.00,WUHU216HW,2013-01-10 13:53:00,
2013-01-10 05:58:00,36.9,33.9,29.97,WNW,293,0.0,0.0,89,0.00,,,0.00,WUHU216HW,2013-01-10 13:58:00,
2013-01-10 06:03:00,36.7,33.8,29.97,WNW,293,0.0,0.0,89,0.00,,,0.00,WUHU216HW,2013-01-10 14:03:00,
2013-01-10 06:08:00,36.7,33.8,29.97,WNW,293,0.0,0.2,89,0.00,,,0.00,WUHU216HW,2013-01-10 14:08:00,
2013-01-10 06:13:00,36.7,33.8,29.97,WNW,293,0.0,0.2,89,0.00,,,0.00,WUHU216HW,2013-01-10 14:13:00,
2013-01-10 06:18:00,36.7,33.8,29.97,WNW,293,0.0,0.0,89,0.00,,,0.00,WUHU216HW,2013-01-10 14:18:00,
2013-01-10 06:23:00,36.5,33.6,29.97,WNW,293,0.0,0.0,89,0.00,,,0.00,WUHU216HW,2013-01-10 14:23:00,
2013-01-10 06:28:00,36.4,33.4,29.97,WNW,293,0.2,0.2,89,0.00,,,0.00,WUHU216HW,2013-01-10 14:28:00,
2013-01-10 06:33:00,36.4,33.4,29.97,WNW,293,0.0,0.2,89,0.00,,,0.00,WUHU216HW,2013-01-10 14:33:00,
2013-01-10 06:38:00,36.2,33.2,29.97,WNW,293,0.0,0.2,89,0.00,,,0.00,WUHU216HW,2013-01-10 14:38:00,
2013-01-10 06:43:00,36.2,33.2,29.97,WNW,293,0.0,0.2,89,0.00,,,0.00,WUHU216HW,2013-01-10 14:43:00,
2013-01-10 06:48:00,36.0,33.0,29.98,WNW,293,0.4,0.4,89,0.00,,,0.00,WUHU216HW,2013-01-10 14:48:00,
2013-01-10 06:53:00,35.8,32.9,29.98,WNW,293,0.0,0.4,89,0.00,,,0.00,WUHU216HW,2013-01-10 14:53:00,
2013-01-10 06:58:00,35.8,32.9,29.98,WNW,293,0.4,0.4,89,0.00,,,0.00,WUHU216HW,2013-01-10 14:58:00,
2013-01-10 07:03:00,35.6,32.7,29.98,NE,45,0.0,0.4,89,0.00,,,0.00,WUHU216HW,2013-01-10 15:03:00,
2013-01-10 07:08:00,35.6,32.7,29.99,NE,45,0.0,0.4,89,0.00,,,0.00,WUHU216HW,2013-01-10 15:08:00,
2013-01-10 07:13:00,35.6,32.7,29.98,NE,45,0.0,0.4,89,0.00,,,0.00,WUHU216HW,2013-01-10 15:13:00,
2013-01-10 07:18:00,35.6,32.7,29.99,NE,45,0.0,0.4,89,0.00,,,0.00,WUHU216HW,2013-01-10 15:18:00,
2013-01-10 07:23:00,35.6,32.7,29.99,NE,45,0.0,0.4,89,0.00,,,0.00,WUHU216HW,2013-01-10 15:23:00,
2013-01-10 07:28:00,35.6,32.7,29.99,NE,45,0.0,0.4,89,0.00,,,0.00,WUHU216HW,2013-01-10 15:28:00,
2013-01-10 07:33:00,35.6,32.7,29.99,NE,45,0.0,0.2,89,0.00,,,0.00,WUHU216HW,2013-01-10 15:33:00,
2013-01-10 07:38:00,35.6,32.7,29.99,NE,45,0.0,0.0,89,0.00,,,0.00,WUHU216HW,2013-01-10 15:38:00,
2013-01-10 07:43:00,35.6,32.7,29.99,NE,45,0.0,0.0,89,0.00,,,0.00,WUHU216HW,2013-01-10 15:43:00,
2013-01-10 07:48:00,35.6,32.7,29.99,NE,45,0.0,0.0,89,0.00,,,0.00,WUHU216HW,2013-01-10 15:48:00,
2013-01-10 07:53:00,35.6,32.7,29.99,NE,45,0.0,0.0,89,0.00,,,0.00,WUHU216HW,2013-01-10 15:53:00,
2013-01-10 07:58:00,35.6,32.7,29.99,NE,45,0.0,0.4,89,0.00,,,0.00,WUHU216HW,2013-01-10 15:58:00,
2013-01-10 08:03:00,35.6,32.7,29.99,NE,45,0.0,0.4,89,0.00,,,0.00,WUHU216HW,2013-01-10 16:03:00,
2013-01-10 08:08:00,35.6,32.9,29.99,NE,45,0.0,0.0,90,0.00,,,0.00,WUHU216HW,2013-01-10 16:08:00,
2013-01-10 08:13:00,35.8,32.9,29.99,NE,45,0.0,0.0,89,0.00,,,0.00,WUHU216HW,2013-01-10 16:13:00,
2013-01-10 08:18:00,35.8,32.9,30.00,NE,45,0.0,0.0,89,0.00,,,0.00,WUHU216HW,2013-01-10 16:18:00,
2013-01-10 08:23:00,36.0,33.0,30.00,NE,45,0.0,0.0,89,0.00,,,0.00,WUHU216HW,2013-01-10 16:23:00,
2013-01-10 08:28:00,36.2,33.2,30.00,NE,45,0.0,0.0,89,0.00,,,0.00,WUHU216HW,2013-01-10 16:28:00,
2013-01-10 08:33:00,36.2,33.2,30.00,NE,45,0.0,0.0,89,0.00,,,0.00,WUHU216HW,2013-01-10 16:33:00,
2013-01-10 08:38:00,36.4,33.4,30.00,NE,45,0.0,0.0,89,0.00,,,0.00,WUHU216HW,2013-01-10 16:38:00,
2013-01-10 08:43:00,36.5,33.6,30.00,NE,45,0.0,0.0,89,0.00,,,0.00,WUHU216HW,2013-01-10 16:43:00,
2013-01-10 08:48:00,36.7,33.8,30.01,NE,45,0.0,0.0,89,0.00,,,0.00,WUHU216HW,2013-01-10 16:48:00,
2013-01-10 08:53:00,37.1,34.4,30.01,NE,45,0.0,0.0,90,0.00,,,0.00,WUHU216HW,2013-01-10 16:53:00,
2013-01-10 08:58:00,37.4,34.7,30.01,NE,45,0.0,0.0,90,0.00,,,0.00,WUHU216HW,2013-01-10 16:58:00,
2013-01-10 09:03:00,37.6,35.2,30.01,NE,45,0.4,0.4,91,0.00,,,0.00,WUHU216HW,2013-01-10 17:03:00,
2013-01-10 09:08:00,37.8,35.4,30.01,NE,45,0.4,0.4,91,0.00,,,0.00,WUHU216HW,2013-01-10 17:08:00,
2013-01-10 09:13:00,38.2,35.5,30.01,NE,45,0.0,0.7,90,0.00,,,0.00,WUHU216HW,2013-01-10 17:13:00,
2013-01-10 09:18:00,38.5,35.8,30.01,NE,45,0.0,0.9,90,0.00,,,0.00,WUHU216HW,2013-01-10 17:18:00,
2013-01-10 09:23:00,39.1,36.6,30.01,NE,45,0.2,0.9,91,0.00,,,0.00,WUHU216HW,2013-01-10 17:23:00,
2013-01-10 09:28:00,39.2,36.8,30.01,North,0,0.4,0.7,91,0.00,,,0.00,WUHU216HW,2013-01-10 17:28:00,
2013-01-10 09:33:00,39.6,37.2,30.01,NNE,23,0.4,1.1,91,0.00,,,0.00,WUHU216HW,2013-01-10 17:33:00,
2013-01-10 09:38:00,39.8,37.4,30.01,NNE,23,0.0,1.1,91,0.00,,,0.00,WUHU216HW,2013-01-10 17:38:00,
2013-01-10 09:43:00,40.0,37.5,30.01,NNE,23,0.4,1.1,91,0.00,,,0.00,WUHU216HW,2013-01-10 17:43:00,
2013-01-10 09:48:00,40.3,37.9,30.01,SE,135,0.4,1.1,91,0.00,,,0.00,WUHU216HW,2013-01-10 17:48:00,
2013-01-10 09:53:00,40.7,38.3,30.01,SE,135,0.7,1.1,91,0.00,,,0.00,WUHU216HW,2013-01-10 17:53:00,
2013-01-10 09:58:00,41.0,38.6,30.02,ESE,113,0.0,0.7,91,0.00,,,0.00,WUHU216HW,2013-01-10 17:58:00,
2013-01-10 10:03:00,41.0,38.3,30.01,ESE,113,0.0,0.7,90,0.00,,,0.00,WUHU216HW,2013-01-10 18:03:00,
2013-01-10 10:08:00,41.4,38.7,30.01,ESE,113,0.0,0.4,90,0.00,,,0.00,WUHU216HW,2013-01-10 18:08:00,
2013-01-10 10:13:00,41.4,38.7,30.01,ESE,113,0.4,0.4,90,0.00,,,0.00,WUHU216HW,2013-01-10 18:13:00,
2013-01-10 10:18:00,41.8,39.1,30.01,SSE,158,0.4,0.4,90,0.00,,,0.00,WUHU216HW,2013-01-10 18:18:00,
2013-01-10 10:23:00,42.1,39.4,30.01,WSW,248,1.1,1.3,90,0.00,,,0.00,WUHU216HW,2013-01-10 18:23:00,
2013-01-10 10:28:00,42.3,39.6,30.01,West,270,1.6,2.5,90,0.00,,,0.00,WUHU216HW,2013-01-10 18:28:00,
2013-01-10 10:33:00,42.8,40.1,30.01,WNW,293,0.2,2.5,90,0.00,,,0.00,WUHU216HW,2013-01-10 18:33:00,
2013-01-10 10:38:00,43.0,40.3,30.01,NW,315,0.4,1.8,90,0.00,,,0.00,WUHU216HW,2013-01-10 18:38:00,
2013-01-10 10:43:00,43.2,40.5,30.01,NW,315,0.9,1.1,90,0.00,,,0.00,WUHU216HW,2013-01-10 18:43:00,
2013-01-10 10:48:00,43.6,40.6,30.01,WNW,293,0.7,3.4,89,0.00,,,0.00,WUHU216HW,2013-01-10 18:48:00,
2013-01-10 10:53:00,43.9,41.0,30.01,West,270,2.7,3.4,89,0.00,,,0.00,WUHU216HW,2013-01-10 18:53:00,
2013-01-10 10:58:00,44.3,41.3,30.00,NNW,338,1.8,2.7,89,0.00,,,0.00,WUHU216HW,2013-01-10 18:58:00,
2013-01-10 11:03:00,44.5,41.1,30.00,West,270,2.5,2.7,88,0.00,,,0.00,WUHU216HW,2013-01-10 19:03:00,
2013-01-10 11:08:00,44.6,39.2,30.00,NNW,338,1.1,3.4,81,0.00,,,0.00,WUHU216HW,2013-01-10 19:08:00,
2013-01-10 11:13:00,45.0,40.1,30.00,NNE,23,0.9,4.0,83,0.00,,,0.00,WUHU216HW,2013-01-10 19:13:00,
2013-01-10 11:18:00,45.2,40.1,30.00,West,270,2.5,4.0,82,0.00,,,0.00,WUHU216HW,2013-01-10 19:18:00,
2013-01-10 11:23:00,45.7,40.0,29.99,WNW,293,3.1,3.4,80,0.00,,,0.00,WUHU216HW,2013-01-10 19:23:00,
2013-01-10 11:28:00,45.7,39.6,29.99,NW,315,2.7,3.4,79,0.00,,,0.00,WUHU216HW,2013-01-10 19:28:00,
2013-01-10 11:33:00,45.9,39.2,29.99,WNW,293,3.4,3.4,77,0.00,,,0.00,WUHU216HW,2013-01-10 19:33:00,
2013-01-10 11:38:00,46.1,39.6,29.99,NW,315,3.6,7.6,78,0.00,,,0.00,WUHU216HW,2013-01-10 19:38:00,
2013-01-10 11:43:00,46.1,39.3,29.99,NW,315,4.7,7.6,77,0.02,,,0.02,WUHU216HW,2013-01-10 19:43:00,
2013-01-10 11:48:00,46.3,39.2,29.99,NW,315,1.1,4.7,76,0.02,,,0.02,WUHU216HW,2013-01-10 19:48:00,
2013-01-10 11:53:00,46.3,38.8,29.99,NW,315,2.2,4.7,75,0.02,,,0.02,WUHU216HW,2013-01-10 19:53:00,
2013-01-10 11:58:00,46.4,39.0,29.99,NW,315,1.3,4.0,75,0.02,,,0.02,WUHU216HW,2013-01-10 19:58:00,
2013-01-10 12:03:00,46.6,39.2,29.98,WNW,293,2.7,2.7,75,0.02,,,0.02,WUHU216HW,2013-01-10 20:03:00,
2013-01-10 12:08:00,46.6,39.2,29.98,NNW,338,1.8,3.1,75,0.02,,,0.02,WUHU216HW,2013-01-10 20:08:00,
2013-01-10 12:13:00,46.8,38.3,29.98,NW,315,3.6,5.4,72,0.02,,,0.02,WUHU216HW,2013-01-10 20:13:00,
2013-01-10 12:18:00,46.8,37.2,29.98,NW,315,4.7,5.4,69,0.02,,,0.02,WUHU216HW,2013-01-10 20:18:00,
2013-01-10 12:23:00,47.0,37.0,29.98,NNW,338,3.1,5.4,68,0.02,,,0.02,WUHU216HW,2013-01-10 20:23:00,
2013-01-10 12:28:00,47.2,37.2,29.98,NW,315,4.7,5.4,68,0.02,,,0.02,WUHU216HW,2013-01-10 20:28:00,
2013-01-10 12:33:00,47.2,36.0,29.98,WNW,293,6.7,8.5,65,0.02,,,0.02,WUHU216HW,2013-01-10 20:33:00,
2013-01-10 12:38:00,47.3,36.6,29.98,WNW,293,4.0,8.5,66,0.00,,,0.02,WUHU216HW,2013-01-10 20:38:00,
2013-01-10 12:43:00,47.2,36.7,29.97,WNW,293,4.5,5.6,67,0.00,,,0.02,WUHU216HW,2013-01-10 20:43:00,
2013-01-10 12:48:00,47.3,36.6,29.97,WNW,293,4.7,7.6,66,0.00,,,0.02,WUHU216HW,2013-01-10 20:48:00,
2013-01-10 12:53:00,47.5,36.3,29.97,NNW,338,5.8,7.6,65,0.00,,,0.02,WUHU216HW,2013-01-10 20:53:00,
2013-01-10 12:58:00,47.7,36.5,29.97,NW,315,5.4,6.9,65,0.00,,,0.02,WUHU216HW,2013-01-10 20:58:00,
2013-01-10 13:03:00,47.9,37.0,29.97,North,0,1.8,6.7,66,0.00,,,0.02,WUHU216HW,2013-01-10 21:03:00,
2013-01-10 13:08:00,48.1,37.2,29.97,NW,315,4.7,6.7,66,0.00,,,0.02,WUHU216HW,2013-01-10 21:08:00,
2013-01-10 13:13:00,48.1,36.1,29.98,NNW,338,3.4,5.8,63,0.00,,,0.02,WUHU216HW,2013-01-10 21:13:00,
2013-01-10 13:18:00,48.2,36.3,29.97,NW,315,5.8,6.5,63,0.00,,,0.02,WUHU216HW,2013-01-10 21:18:00,
2013-01-10 13:23:00,48.2,36.3,29.97,NW,315,5.1,7.6,63,0.00,,,0.02,WUHU216HW,2013-01-10 21:23:00,
2013-01-10 13:28:00,48.4,36.8,29.97,NW,315,4.7,7.6,64,0.00,,,0.02,WUHU216HW,2013-01-10 21:28:00,
2013-01-10 13:33:00,48.2,35.5,29.97,NNW,338,1.8,5.1,61,0.00,,,0.02,WUHU216HW,2013-01-10 21:33:00,
2013-01-10 13:38:00,48.1,35.6,29.97,NNW,338,3.4,5.1,62,0.00,,,0.02,WUHU216HW,2013-01-10 21:38:00,
2013-01-10 13:43:00,48.2,35.1,29.97,NNW,338,1.3,5.1,60,0.00,,,0.02,WUHU216HW,2013-01-10 21:43:00,
2013-01-10 13:48:00,48.2,35.5,29.97,NW,315,1.8,5.4,61,0.00,,,0.02,WUHU216HW,2013-01-10 21:48:00,
2013-01-10 13:53:00,48.4,35.6,29.97,WNW,293,2.5,5.4,61,0.00,,,0.02,WUHU216HW,2013-01-10 21:53:00,
2013-01-10 13:58:00,48.6,35.8,29.97,NW,315,1.3,4.5,61,0.00,,,0.02,WUHU216HW,2013-01-10 21:58:00,
2013-01-10 14:03:00,48.4,35.6,29.97,NNW,338,2.9,4.7,61,0.00,,,0.02,WUHU216HW,2013-01-10 22:03:00,
2013-01-10 14:08:00,48.4,35.3,29.97,NW,315,5.8,5.8,60,0.00,,,0.02,WUHU216HW,2013-01-10 22:08:00,
2013-01-10 14:13:00,48.4,35.6,29.97,NNW,338,4.7,6.9,61,0.00,,,0.02,WUHU216HW,2013-01-10 22:13:00,
2013-01-10 14:18:00,48.4,36.4,29.97,NW,315,5.6,6.9,63,0.00,,,0.02,WUHU216HW,2013-01-10 22:18:00,
2013-01-10 14:24:00,48.2,35.8,29.97,West,270,3.1,5.8,62,0.00,,,0.02,WUHU216HW,2013-01-10 22:24:00,
2013-01-10 14:29:00,48.2,36.3,29.97,NW,315,2.5,5.6,63,0.00,,,0.02,WUHU216HW,2013-01-10 22:29:00,
2013-01-10 14:34:00,48.2,36.3,29.97,NNW,338,2.5,5.6,63,0.00,,,0.02,WUHU216HW,2013-01-10 22:34:00,
2013-01-10 14:39:00,48.1,34.9,29.98,NW,315,4.7,6.5,60,0.00,,,0.02,WUHU216HW,2013-01-10 22:39:00,
2013-01-10 14:44:00,47.9,34.3,29.97,WNW,293,2.7,6.5,59,0.00,,,0.02,WUHU216HW,2013-01-10 22:44:00,
2013-01-10 14:49:00,47.9,35.1,29.98,NW,315,2.2,4.7,61,0.00,,,0.02,WUHU216HW,2013-01-10 22:49:00,
2013-01-10 14:54:00,47.7,34.9,29.97,NNW,338,1.8,6.0,61,0.00,,,0.02,WUHU216HW,2013-01-10 22:54:00,
2013-01-10 14:59:00,47.7,34.9,29.97,North,0,2.2,6.0,61,0.00,,,0.02,WUHU216HW,2013-01-10 22:59:00,
2013-01-10 15:04:00,47.9,35.5,29.97,North,0,2.5,4.9,62,0.00,,,0.02,WUHU216HW,2013-01-10 23:04:00,
2013-01-10 15:09:00,47.9,35.1,29.97,West,270,3.4,6.7,61,0.00,,,0.02,WUHU216HW,2013-01-10 23:09:00,
2013-01-10 15:14:00,47.9,35.1,29.98,NW,315,5.6,6.7,61,0.00,,,0.02,WUHU216HW,2013-01-10 23:14:00,
2013-01-10 15:19:00,47.9,35.1,29.97,NW,315,3.6,6.7,61,0.00,,,0.02,WUHU216HW,2013-01-10 23:19:00,
2013-01-10 15:24:00,47.9,34.7,29.97,West,270,2.2,6.3,60,0.00,,,0.02,WUHU216HW,2013-01-10 23:24:00,
2013-01-10 15:29:00,47.9,34.3,29.97,North,0,1.8,5.4,59,0.00,,,0.02,WUHU216HW,2013-01-10 23:29:00,
2013-01-10 15:34:00,47.9,34.7,29.97,NW,315,2.9,4.9,60,0.00,,,0.02,WUHU216HW,2013-01-10 23:34:00,
2013-01-10 15:39:00,47.9,34.3,29.97,West,270,4.9,5.1,59,0.00,,,0.02,WUHU216HW,2013-01-10 23:39:00,
2013-01-10 15:44:00,47.9,33.9,29.97,West,270,3.8,5.1,58,0.00,,,0.02,WUHU216HW,2013-01-10 23:44:00,
2013-01-10 15:49:00,47.9,33.9,29.97,NW,315,2.0,4.9,58,0.00,,,0.02,WUHU216HW,2013-01-10 23:49:00,
2013-01-10 15:54:00,47.9,34.3,29.97,NW,315,2.5,4.7,59,0.00,,,0.02,WUHU216HW,2013-01-10 23:54:00,
2013-01-10 15:59:00,47.9,33.9,29.98,NW,315,4.3,4.3,58,0.00,,,0.02,WUHU216HW,2013-01-10 23:59:00,
2013-01-10 16:04:00,47.7,34.6,29.98,North,0,1.1,4.3,60,0.00,,,0.02,WUHU216HW,2013-01-11 00:04:00,
2013-01-10 16:09:00,47.5,34.4,29.98,North,0,5.4,5.4,60,0.00,,,0.02,WUHU216HW,2013-01-11 00:09:00,
2013-01-10 16:14:00,47.3,33.8,29.98,NNW,338,2.5,5.4,59,0.00,,,0.02,WUHU216HW,2013-01-11 00:14:00,
2013-01-10 16:19:00,47.3,34.2,29.98,NNE,23,2.9,5.4,60,0.00,,,0.02,WUHU216HW,2013-01-11 00:19:00,
2013-01-10 16:24:00,47.2,34.0,29.98,NNW,338,1.6,4.3,60,0.00,,,0.02,WUHU216HW,2013-01-11 00:24:00,
2013-01-10 16:29:00,47.0,33.8,29.98,NNW,338,2.2,2.9,60,0.00,,,0.02,WUHU216HW,2013-01-11 00:29:00,
2013-01-10 16:34:00,46.8,33.7,29.98,NW,315,1.6,2.9,60,0.00,,,0.02,WUHU216HW,2013-01-11 00:34:00,
2013-01-10 16:39:00,46.6,33.5,29.98,NNW,338,1.1,2.9,60,0.00,,,0.02,WUHU216HW,2013-01-11 00:39:00,
2013-01-10 16:44:00,46.6,33.8,29.98,NNW,338,0.4,2.2,61,0.00,,,0.02,WUHU216HW,2013-01-11 00:44:00,
2013-01-10 16:49:00,46.4,34.1,29.98,NNW,338,0.9,1.8,62,0.00,,,0.02,WUHU216HW,2013-01-11 00:49:00,
2013-01-10 16:54:00,46.3,33.9,29.98,NNW,338,0.7,1.3,62,0.00,,,0.02,WUHU216HW,2013-01-11 00:54:00,
2013-01-10 16:59:00,46.1,34.1,29.99,NNW,338,0.4,1.1,63,0.00,,,0.02,WUHU216HW,2013-01-11 00:59:00,
2013-01-10 17:04:00,45.9,34.0,29.99,NNW,338,0.0,1.1,63,0.00,,,0.02,WUHU216HW,2013-01-11 01:04:00,
2013-01-10 17:09:00,45.7,34.2,29.99,NNW,338,0.0,0.4,64,0.00,,,0.02,WUHU216HW,2013-01-11 01:09:00,
2013-01-10 17:14:00,45.5,34.5,29.99,NNW,338,0.2,0.4,65,0.00,,,0.02,WUHU216HW,2013-01-11 01:14:00,
2013-01-10 17:19:00,45.2,34.5,29.99,NNW,338,0.4,0.7,66,0.00,,,0.02,WUHU216HW,2013-01-11 01:19:00,
2013-01-10 17:24:00,44.8,34.1,29.99,NNW,338,0.4,0.7,66,0.00,,,0.02,WUHU216HW,2013-01-11 01:24:00,
2013-01-10 17:29:00,44.6,34.3,29.99,NNW,338,0.9,0.9,67,0.00,,,0.02,WUHU216HW,2013-01-11 01:29:00,
2013-01-10 17:34:00,44.3,34.4,29.99,NNW,338,0.4,0.9,68,0.00,,,0.02,WUHU216HW,2013-01-11 01:34:00,
2013-01-10 17:39:00,44.1,34.2,29.99,NNW,338,0.9,0.9,68,0.00,,,0.02,WUHU216HW,2013-01-11 01:39:00,
2013-01-10 17:44:00,43.9,34.5,30.00,NNW,338,0.0,0.9,69,0.00,,,0.02,WUHU216HW,2013-01-11 01:44:00,
2013-01-10 17:49:00,43.6,34.5,30.00,NNW,338,0.0,0.9,70,0.00,,,0.02,WUHU216HW,2013-01-11 01:49:00,
2013-01-10 17:54:00,43.2,34.2,30.00,NNW,338,0.0,0.4,70,0.00,,,0.02,WUHU216HW,2013-01-11 01:54:00,
2013-01-10 17:59:00,42.8,34.2,30.00,NNW,338,0.0,0.4,71,0.00,,,0.02,WUHU216HW,2013-01-11 01:59:00,
2013-01-10 18:04:00,42.8,33.8,30.00,NNW,338,0.0,0.0,70,0.00,,,0.02,WUHU216HW,2013-01-11 02:04:00,
2013-01-10 18:09:00,42.5,33.9,30.00,NNW,338,0.0,0.0,71,0.00,,,0.02,WUHU216HW,2013-01-11 02:09:00,
2013-01-10 18:14:00,42.1,33.5,30.00,NNW,338,0.0,0.0,71,0.00,,,0.02,WUHU216HW,2013-01-11 02:14:00,
2013-01-10 18:19:00,41.9,33.6,30.01,NNW,338,0.0,0.4,72,0.00,,,0.02,WUHU216HW,2013-01-11 02:19:00,
2013-01-10 18:24:00,41.9,33.6,30.01,NNW,338,0.0,0.4,72,0.00,,,0.02,WUHU216HW,2013-01-11 02:24:00,
2013-01-10 18:29:00,41.8,33.4,30.01,NNW,338,0.0,0.4,72,0.00,,,0.02,WUHU216HW,2013-01-11 02:29:00,
2013-01-10 18:34:00,41.8,33.8,30.01,NNW,338,0.0,0.0,73,0.00,,,0.02,WUHU216HW,2013-01-11 02:34:00,
2013-01-10 18:39:00,41.6,33.6,30.01,NNW,338,0.0,0.0,73,0.00,,,0.02,WUHU216HW,2013-01-11 02:39:00,
2013-01-10 18:44:00,41.4,33.4,30.02,NNW,338,0.0,0.0,73,0.00,,,0.02,WUHU216HW,2013-01-11 02:44:00,
2013-01-10 18:49:00,41.4,33.7,30.01,NNW,338,0.4,0.4,74,0.00,,,0.02,WUHU216HW,2013-01-11 02:49:00,
2013-01-10 18:54:00,41.2,33.5,30.01,SW,225,0.0,1.1,74,0.00,,,0.02,WUHU216HW,2013-01-11 02:54:00,
2013-01-10 18:59:00,41.0,33.7,30.02,SW,225,0.0,1.1,75,0.00,,,0.02,WUHU216HW,2013-01-11 02:59:00,
2013-01-10 19:04:00,40.9,33.9,30.02,SW,225,0.4,0.4,76,0.00,,,0.02,WUHU216HW,2013-01-11 03:04:00,
2013-01-10 19:09:00,40.7,33.7,30.02,SW,225,0.0,0.4,76,0.00,,,0.02,WUHU216HW,2013-01-11 03:09:00,
2013-01-10 19:14:00,40.5,33.9,30.02,SW,225,0.0,0.4,77,0.00,,,0.02,WUHU216HW,2013-01-11 03:14:00,
2013-01-10 19:19:00,40.3,33.7,30.03,SW,225,0.0,0.7,77,0.00,,,0.02,WUHU216HW,2013-01-11 03:19:00,
2013-01-10 19:24:00,40.1,33.5,30.03,SW,225,0.0,0.7,77,0.00,,,0.02,WUHU216HW,2013-01-11 03:24:00,
2013-01-10 19:29:00,40.0,33.3,30.03,SW,225,0.2,0.4,77,0.00,,,0.02,WUHU216HW,2013-01-11 03:29:00,
2013-01-10 19:34:00,40.0,33.3,30.03,SW,225,0.0,0.4,77,0.00,,,0.02,WUHU216HW,2013-01-11 03:34:00,
2013-01-10 19:39:00,40.0,33.3,30.03,SW,225,0.0,0.4,77,0.00,,,0.02,WUHU216HW,2013-01-11 03:39:00,
2013-01-10 19:44:00,39.8,33.1,30.03,SW,225,0.0,0.4,77,0.00,,,0.02,WUHU216HW,2013-01-11 03:44:00,
2013-01-10 19:49:00,39.4,33.1,30.03,SW,225,0.2,0.2,78,0.00,,,0.02,WUHU216HW,2013-01-11 03:49:00,
2013-01-10 19:54:00,39.2,33.3,30.03,SW,225,0.0,0.2,79,0.00,,,0.02,WUHU216HW,2013-01-11 03:54:00,
2013-01-10 19:59:00,38.9,32.9,30.04,SW,225,0.0,0.2,79,0.00,,,0.02,WUHU216HW,2013-01-11 03:59:00,
2013-01-10 20:04:00,38.5,32.6,30.04,SW,225,0.0,0.2,79,0.00,,,0.02,WUHU216HW,2013-01-11 04:04:00,
2013-01-10 20:09:00,38.2,32.6,30.04,SW,225,0.0,0.0,80,0.00,,,0.02,WUHU216HW,2013-01-11 04:09:00,
2013-01-10 20:14:00,37.8,32.2,30.04,SW,225,0.0,0.0,80,0.00,,,0.02,WUHU216HW,2013-01-11 04:14:00,
2013-01-10 20:19:00,37.8,32.2,30.04,SW,225,0.0,0.2,80,0.00,,,0.02,WUHU216HW,2013-01-11 04:19:00,
2013-01-10 20:24:00,37.6,32.0,30.04,SW,225,0.0,0.2,80,0.00,,,0.02,WUHU216HW,2013-01-11 04:24:00,
2013-01-10 20:29:00,37.8,32.2,30.04,SW,225,0.0,0.0,80,0.00,,,0.02,WUHU216HW,2013-01-11 04:29:00,
2013-01-10 20:34:00,37.6,32.0,30.03,SW,225,0.0,0.0,80,0.00,,,0.02,WUHU216HW,2013-01-11 04:34:00,
2013-01-10 20:39:00,37.3,32.0,30.03,SW,225,0.4,0.4,81,0.00,,,0.02,WUHU216HW,2013-01-11 04:39:00,
2013-01-10 20:44:00,37.1,31.8,30.04,SW,225,0.0,0.4,81,0.00,,,0.02,WUHU216HW,2013-01-11 04:44:00,
2013-01-10 20:49:00,36.9,31.9,30.04,SW,225,0.0,0.4,82,0.00,,,0.02,WUHU216HW,2013-01-11 04:49:00,
2013-01-10 20:54:00,36.5,31.5,30.04,SW,225,0.0,0.2,82,0.00,,,0.02,WUHU216HW,2013-01-11 04:54:00,
2013-01-10 20:59:00,36.4,31.7,30.04,SW,225,0.0,0.2,83,0.00,,,0.02,WUHU216HW,2013-01-11 04:59:00,
2013-01-10 21:00:00,36.4,31.7,30.04,SW,225,0.0,0.2,83,0.00,,,0.02,WUHU216HW,2013-01-11 05:00:00,
2013-01-10 21:03:00,36.2,31.5,30.04,SW,225,0.0,0.2,83,0.00,,,0.02,WUHU216HW,2013-01-11 05:03:00,
2013-01-10 21:08:00,36.2,31.5,30.04,SW,225,0.0,0.2,83,0.00,,,0.02,WUHU216HW,2013-01-11 05:08:00,
2013-01-10 21:13:00,36.2,31.5,30.04,SW,225,0.0,0.2,83,0.00,,,0.02,WUHU216HW,2013-01-11 05:13:00,
2013-01-10 21:18:00,36.2,31.5,30.04,SW,225,0.0,0.0,83,0.00,,,0.02,WUHU216HW,2013-01-11 05:18:00,
2013-01-10 21:23:00,36.0,31.6,30.04,SW,225,0.0,0.0,84,0.00,,,0.02,WUHU216HW,2013-01-11 05:23:00,
2013-01-10 21:28:00,36.0,31.3,30.05,SW,225,0.0,0.0,83,0.00,,,0.02,WUHU216HW,2013-01-11 05:28:00,
2013-01-10 21:33:00,35.8,31.2,30.05,SW,225,0.0,0.0,83,0.00,,,0.02,WUHU216HW,2013-01-11 05:33:00,
2013-01-10 21:39:00,35.8,31.2,30.05,WSW,248,0.0,0.4,83,0.00,,,0.02,WUHU216HW,2013-01-11 05:39:00,
2013-01-10 21:43:00,35.5,31.1,30.05,WSW,248,0.0,0.4,84,0.00,,,0.02,WUHU216HW,2013-01-11 05:43:00,
2013-01-10 21:48:00,35.1,30.7,30.05,WSW,248,0.0,0.2,84,0.00,,,0.02,WUHU216HW,2013-01-11 05:48:00,
2013-01-10 21:53:00,35.1,30.7,30.06,WSW,248,0.0,0.4,84,0.00,,,0.02,WUHU216HW,2013-01-11 05:53:00,
2013-01-10 21:58:00,35.1,30.7,30.06,WSW,248,0.0,0.4,84,0.00,,,0.02,WUHU216HW,2013-01-11 05:58:00,
2013-01-10 22:03:00,35.1,30.7,30.06,WSW,248,0.0,0.0,84,0.00,,,0.02,WUHU216HW,2013-01-11 06:03:00,
2013-01-10 22:09:00,35.1,30.7,30.06,WSW,248,0.0,0.0,84,0.00,,,0.02,WUHU216HW,2013-01-11 06:09:00,
2013-01-10 22:13:00,35.1,30.7,30.06,WSW,248,0.0,0.0,84,0.00,,,0.02,WUHU216HW,2013-01-11 06:13:00,
2013-01-10 22:18:00,35.1,30.7,30.06,WSW,248,0.0,0.0,84,0.00,,,0.02,WUHU216HW,2013-01-11 06:18:00,
2013-01-10 22:23:00,34.9,30.5,30.06,WSW,248,0.0,0.0,84,0.00,,,0.02,WUHU216HW,2013-01-11 06:23:00,
2013-01-10 22:28:00,34.9,30.5,30.07,NW,315,0.2,0.4,84,0.00,,,0.02,WUHU216HW,2013-01-11 06:28:00,
2013-01-10 22:33:00,34.7,30.3,30.06,NW,315,0.4,0.4,84,0.00,,,0.02,WUHU216HW,2013-01-11 06:33:00,
2013-01-10 22:38:00,34.6,30.2,30.07,NW,315,0.4,0.7,84,0.00,,,0.02,WUHU216HW,2013-01-11 06:38:00,
2013-01-10 22:43:00,34.4,30.0,30.07,NW,315,0.0,0.7,84,0.00,,,0.02,WUHU216HW,2013-01-11 06:43:00,
2013-01-10 22:48:00,34.4,30.0,30.07,NW,315,0.0,0.4,84,0.00,,,0.02,WUHU216HW,2013-01-11 06:48:00,
2013-01-10 22:53:00,34.2,29.8,30.07,NW,315,0.0,0.4,84,0.00,,,0.02,WUHU216HW,2013-01-11 06:53:00,
2013-01-10 22:58:00,34.2,29.8,30.07,NNW,338,0.0,0.7,84,0.00,,,0.02,WUHU216HW,2013-01-11 06:58:00,
2013-01-10 23:03:00,34.0,29.6,30.07,NNW,338,0.7,0.7,84,0.00,,,0.02,WUHU216HW,2013-01-11 07:03:00,
2013-01-10 23:08:00,33.8,29.4,30.07,NNW,338,0.0,0.7,84,0.00,,,0.02,WUHU216HW,2013-01-11 07:08:00,
2013-01-10 23:13:00,33.7,29.5,30.07,NNW,338,0.0,0.7,85,0.00,,,0.02,WUHU216HW,2013-01-11 07:13:00,
2013-01-10 23:18:00,33.7,29.5,30.07,NNW,338,0.0,0.0,85,0.00,,,0.02,WUHU216HW,2013-01-11 07:18:00,
2013-01-10 23:23:00,33.7,29.5,30.07,NNW,338,0.0,0.0,85,0.00,,,0.02,WUHU216HW,2013-01-11 07:23:00,
2013-01-10 23:28:00,33.7,29.5,30.07,NNW,338,0.0,0.0,85,0.00,,,0.02,WUHU216HW,2013-01-11 07:28:00,
2013-01-10 23:33:00,33.7,29.5,30.07,NNW,338,0.0,0.0,85,0.00,,,0.02,WUHU216HW,2013-01-11 07:33:00,
2013-01-10 23:38:00,33.7,29.5,30.07,NNW,338,0.0,0.0,85,0.00,,,0.02,WUHU216HW,2013-01-11 07:38:00,
2013-01-10 23:43:00,33.7,29.5,30.07,NNW,338,0.0,0.0,85,0.00,,,0.02,WUHU216HW,2013-01-11 07:43:00,
2013-01-10 23:48:00,33.5,29.3,30.07,NNW,338,0.0,0.0,85,0.00,,,0.02,WUHU216HW,2013-01-11 07:48:00,
2013-01-10 23:53:00,33.5,29.3,30.07,NNW,338,0.0,0.0,85,0.00,,,0.02,WUHU216HW,2013-01-11 07:53:00,
2013-01-10 23:58:00,33.5,29.3,30.07,NNW,338,0.0,0.0,85,0.00,,,0.02,WUHU216HW,2013-01-11 07:58:00,